createdAt,value
2018-09-06T00:01:37.239Z,15.73
2018-09-06T00:04:07.543Z,15.73
2018-09-06T00:06:38.048Z,16.17
2018-09-06T00:09:09.704Z,15.40
2018-09-06T00:11:40.278Z,15.73
2018-09-06T00:14:10.702Z,15.80
2018-09-06T00:16:42.048Z,15.97
2018-09-06T00:19:12.060Z,15.07
2018-09-06T00:21:42.292Z,14.57
2018-09-06T00:24:12.885Z,16.73
2018-09-06T00:26:43.434Z,16.87
2018-09-06T00:29:13.740Z,16.67
2018-09-06T00:31:43.769Z,16.33
2018-09-06T00:34:14.151Z,17.63
2018-09-06T00:36:44.573Z,17.77
2018-09-06T00:39:14.847Z,17.47
2018-09-06T00:41:44.945Z,18.20
2018-09-06T00:44:15.379Z,18.07
2018-09-06T00:46:45.761Z,20.33
2018-09-06T00:49:16.184Z,20.03
2018-09-06T00:51:46.386Z,20.50
2018-09-06T00:54:16.627Z,20.30
2018-09-06T00:56:47.096Z,21.77
2018-09-06T00:59:21.938Z,20.40
2018-09-06T01:01:54.015Z,21.23
2018-09-06T01:04:25.586Z,21.37
2018-09-06T01:06:57.273Z,21.63
2018-09-06T01:09:29.261Z,21.20
2018-09-06T01:12:01.337Z,21.07
2018-09-06T01:14:32.744Z,20.00
2018-09-06T01:17:04.478Z,20.83
2018-09-06T01:19:36.425Z,21.63
2018-09-06T01:22:07.959Z,21.63
2018-09-06T01:24:39.640Z,22.13
2018-09-06T01:27:11.412Z,21.83
2018-09-06T01:29:43.174Z,21.83
2018-09-06T01:32:14.286Z,20.90
2018-09-06T01:34:46.430Z,21.53
2018-09-06T01:37:18.200Z,23.63
2018-09-06T01:39:49.732Z,22.97
2018-09-06T01:42:20.899Z,22.50
2018-09-06T01:44:52.785Z,22.00
2018-09-06T01:47:24.060Z,22.47
2018-09-06T01:49:55.781Z,22.83
2018-09-06T01:52:27.324Z,23.00
2018-09-06T01:54:59.181Z,22.30
2018-09-06T01:57:31.351Z,22.40
2018-09-06T02:00:02.768Z,21.63
2018-09-06T02:02:34.368Z,21.87
2018-09-06T02:05:06.004Z,21.87
2018-09-06T02:07:37.384Z,21.87
2018-09-06T02:10:09.337Z,22.47
2018-09-06T02:12:41.092Z,22.23
2018-09-06T02:15:12.945Z,21.03
2018-09-06T02:17:44.452Z,21.47
2018-09-06T02:20:15.484Z,20.17
2018-09-06T02:22:47.915Z,18.63
2018-09-06T02:25:19.860Z,20.87
2018-09-06T02:27:51.790Z,20.60
2018-09-06T02:30:22.973Z,22.80
2018-09-06T02:32:54.489Z,21.57
2018-09-06T02:35:25.904Z,20.97
2018-09-06T02:37:57.430Z,20.43
2018-09-06T02:40:33.847Z,20.07
2018-09-06T02:43:04.714Z,20.47
2018-09-06T02:45:36.445Z,19.67
2018-09-06T02:48:08.340Z,21.43
2018-09-06T02:50:45.062Z,19.10
2018-09-06T02:53:15.750Z,20.70
2018-09-06T02:55:47.495Z,21.20
2018-09-06T02:58:18.784Z,21.03
2018-09-06T03:00:50.390Z,20.93
2018-09-06T03:03:21.360Z,20.17
2018-09-06T03:05:53.473Z,21.07
2018-09-06T03:08:24.811Z,20.60
2018-09-06T03:12:01.072Z,21.47
2018-09-06T03:14:31.780Z,19.63
2018-09-06T03:17:03.710Z,19.73
2018-09-06T03:19:35.840Z,20.37
2018-09-06T03:22:07.737Z,20.13
2018-09-06T03:24:38.242Z,19.97
2018-09-06T03:27:09.955Z,19.87
2018-09-06T03:29:41.727Z,19.80
2018-09-06T03:32:13.393Z,20.77
2018-09-06T03:34:44.943Z,21.20
2018-09-06T03:37:16.778Z,21.10
2018-09-06T03:39:48.756Z,19.90
2018-09-06T03:42:20.380Z,20.67
2018-09-06T03:44:51.430Z,20.70
2018-09-06T03:47:23.107Z,20.30
2018-09-06T03:49:54.080Z,22.00
2018-09-06T03:52:25.456Z,19.80
2018-09-06T03:54:56.798Z,21.60
2018-09-06T03:57:28.023Z,20.67
2018-09-06T03:59:59.449Z,19.87
2018-09-06T04:02:30.426Z,19.70
2018-09-06T04:05:02.303Z,19.87
2018-09-06T04:07:33.963Z,21.07
2018-09-06T04:10:05.252Z,20.03
2018-09-06T04:12:36.188Z,19.97
2018-09-06T04:15:06.722Z,19.17
2018-09-06T04:17:38.127Z,19.83
2018-09-06T04:20:09.365Z,18.80
2018-09-06T04:22:43.371Z,19.93
2018-09-06T04:25:14.759Z,22.87
2018-09-06T04:27:45.074Z,22.13
2018-09-06T04:30:15.493Z,21.83
2018-09-06T04:32:45.724Z,21.43
2018-09-06T04:35:16.160Z,21.47
2018-09-06T04:37:46.388Z,21.93
2018-09-06T04:40:16.625Z,22.43
2018-09-06T04:42:46.800Z,21.13
2018-09-06T04:45:16.823Z,20.70
2018-09-06T04:47:47.129Z,18.63
2018-09-06T04:50:17.215Z,17.10
2018-09-06T04:52:47.454Z,19.13
2018-09-06T04:55:17.754Z,20.47
2018-09-06T04:57:47.934Z,21.47
2018-09-06T05:00:18.132Z,20.37
2018-09-06T05:02:48.425Z,21.80
2018-09-06T05:05:18.611Z,22.07
2018-09-06T05:07:48.963Z,20.43
2018-09-06T05:10:19.358Z,21.53
2018-09-06T05:12:49.685Z,21.33
2018-09-06T05:15:20.183Z,20.60
2018-09-06T05:17:50.673Z,21.17
2018-09-06T05:20:21.046Z,21.70
2018-09-06T05:22:51.254Z,20.27
2018-09-06T05:25:21.626Z,17.80
2018-09-06T05:27:51.979Z,19.10
2018-09-06T05:30:22.045Z,20.20
2018-09-06T05:32:52.345Z,20.90
2018-09-06T05:35:22.700Z,20.97
2018-09-06T05:38:22.819Z,22.13
2018-09-06T05:40:53.102Z,20.40
2018-09-06T05:43:23.770Z,19.73
2018-09-06T05:45:54.004Z,18.90
2018-09-06T05:48:24.301Z,21.40
2018-09-06T05:50:54.535Z,18.33
2018-09-06T05:53:24.834Z,21.50
2018-09-06T05:55:55.006Z,19.63
2018-09-06T05:58:25.572Z,19.83
2018-09-06T06:00:55.938Z,19.00
2018-09-06T06:03:26.474Z,20.33
2018-09-06T06:05:56.521Z,18.33
2018-09-06T06:08:37.366Z,16.50
2018-09-06T06:11:07.658Z,18.47
2018-09-06T06:13:38.097Z,18.43
2018-09-06T06:16:08.311Z,17.90
2018-09-06T06:18:39.367Z,16.30
2018-09-06T06:21:10.541Z,17.00
2018-09-06T06:23:40.824Z,17.17
2018-09-06T06:26:11.177Z,18.00
2018-09-06T06:28:41.226Z,18.77
2018-09-06T06:31:11.429Z,14.07
2018-09-06T06:33:41.557Z,15.20
2018-09-06T06:36:11.771Z,16.40
2018-09-06T06:38:42.206Z,16.37
2018-09-06T06:41:12.543Z,16.90
2018-09-06T06:43:42.690Z,15.37
2018-09-06T06:46:12.877Z,16.33
2018-09-06T06:48:43.088Z,15.83
2018-09-06T06:51:13.167Z,15.43
2018-09-06T06:53:43.297Z,17.43
2018-09-06T06:56:13.527Z,14.43
2018-09-06T06:58:44.013Z,16.03
2018-09-06T07:01:14.150Z,15.43
2018-09-06T07:03:44.464Z,15.47
2018-09-06T07:06:14.429Z,15.33
2018-09-06T07:08:44.594Z,15.73
2018-09-06T07:11:14.983Z,15.13
2018-09-06T07:13:45.291Z,14.97
2018-09-06T07:16:15.888Z,15.00
2018-09-06T07:18:46.294Z,14.30
2018-09-06T07:21:16.481Z,15.70
2018-09-06T07:23:46.668Z,14.33
2018-09-06T07:26:16.912Z,15.50
2018-09-06T07:28:47.179Z,14.00
2018-09-06T07:31:17.372Z,13.20
2018-09-06T07:33:47.892Z,14.00
2018-09-06T07:36:18.199Z,13.20
2018-09-06T07:38:48.607Z,14.87
2018-09-06T07:41:19.028Z,12.80
2018-09-06T07:43:49.305Z,13.53
2018-09-06T07:46:19.536Z,12.47
2018-09-06T07:48:49.797Z,13.07
2018-09-06T07:51:19.870Z,14.73
2018-09-06T07:53:49.964Z,13.80
2018-09-06T07:56:20.085Z,11.93
2018-09-06T07:58:50.350Z,12.53
2018-09-06T08:01:20.706Z,10.13
2018-09-06T08:03:51.220Z,10.43
2018-09-06T08:06:21.744Z,9.67
2018-09-06T08:08:51.842Z,10.03
2018-09-06T08:11:21.996Z,10.37
2018-09-06T08:13:52.288Z,10.00
2018-09-06T08:16:22.930Z,9.63
2018-09-06T08:18:53.169Z,9.10
2018-09-06T08:21:23.702Z,9.43
2018-09-06T08:23:54.302Z,8.67
2018-09-06T08:26:24.449Z,9.70
2018-09-06T08:28:54.709Z,9.20
2018-09-06T08:31:25.803Z,9.60
2018-09-06T08:33:56.213Z,7.83
2018-09-06T08:36:26.543Z,8.30
2018-09-06T08:38:56.937Z,8.00
2018-09-06T08:41:26.972Z,9.30
2018-09-06T08:43:57.254Z,8.63
2018-09-06T08:46:27.636Z,8.67
2018-09-06T08:48:57.816Z,8.60
2018-09-06T08:51:27.931Z,8.20
2018-09-06T08:53:57.931Z,8.07
2018-09-06T08:56:28.123Z,8.10
2018-09-06T08:58:58.109Z,7.77
2018-09-06T09:01:33.440Z,7.93
2018-09-06T09:04:03.735Z,9.13
2018-09-06T09:06:34.095Z,7.90
2018-09-06T09:09:05.475Z,7.20
2018-09-06T09:11:35.633Z,7.90
2018-09-06T09:14:11.431Z,6.83
2018-09-06T09:16:41.924Z,7.90
2018-09-06T09:19:12.218Z,7.67
2018-09-06T09:21:42.416Z,7.50
2018-09-06T09:24:12.757Z,7.93
2018-09-06T09:26:42.908Z,7.17
2018-09-06T09:29:13.215Z,7.50
2018-09-06T09:31:43.517Z,7.50
2018-09-06T09:34:14.127Z,7.07
2018-09-06T09:36:43.980Z,6.83
2018-09-06T09:39:14.276Z,7.47
2018-09-06T09:41:44.661Z,7.87
2018-09-06T09:44:14.983Z,6.93
2018-09-06T09:49:14.462Z,7.30
2018-09-06T09:51:44.818Z,8.00
2018-09-06T09:54:15.473Z,7.93
2018-09-06T09:56:45.622Z,8.17
2018-09-06T09:59:15.938Z,8.10
2018-09-06T10:01:51.131Z,7.60
2018-09-06T10:04:26.662Z,7.27
2018-09-06T10:07:01.913Z,7.50
2018-09-06T10:09:32.111Z,8.30
2018-09-06T10:12:02.480Z,7.47
2018-09-06T10:14:32.568Z,8.80
2018-09-06T10:17:02.909Z,7.10
2018-09-06T10:19:33.172Z,7.33
2018-09-06T10:22:04.478Z,7.40
2018-09-06T10:24:34.757Z,7.00
2018-09-06T10:27:05.092Z,7.50
2018-09-06T10:29:35.213Z,7.20
2018-09-06T10:32:05.523Z,7.20
2018-09-06T10:34:36.374Z,7.27
2018-09-06T10:37:07.629Z,7.60
2018-09-06T10:39:38.814Z,6.83
2018-09-06T10:42:09.921Z,7.50
2018-09-06T10:44:41.209Z,7.60
2018-09-06T10:47:12.320Z,7.60
2018-09-06T10:49:43.678Z,7.63
2018-09-06T10:52:15.038Z,7.13
2018-09-06T10:54:45.358Z,7.63
2018-09-06T10:57:15.431Z,6.70
2018-09-06T10:59:46.115Z,6.70
2018-09-06T11:02:16.680Z,7.80
2018-09-06T11:04:47.645Z,7.43
2018-09-06T11:07:19.176Z,7.27
2018-09-06T11:09:49.441Z,7.67
2018-09-06T11:12:20.981Z,7.80
2018-09-06T11:14:51.599Z,7.67
2018-09-06T11:17:22.165Z,7.40
2018-09-06T11:19:52.713Z,6.77
2018-09-06T11:22:23.280Z,7.60
2018-09-06T11:24:53.529Z,8.07
2018-09-06T11:27:23.713Z,7.83
2018-09-06T11:29:54.199Z,7.57
2018-09-06T11:32:24.845Z,7.77
2018-09-06T11:34:55.256Z,6.97
2018-09-06T11:37:25.400Z,7.20
2018-09-06T11:39:55.812Z,7.10
2018-09-06T11:42:26.084Z,7.40
2018-09-06T11:44:56.417Z,7.83
2018-09-06T11:47:26.832Z,7.43
2018-09-06T11:49:56.984Z,7.53
2018-09-06T11:52:27.334Z,7.47
2018-09-06T11:54:57.825Z,7.70
2018-09-06T11:57:27.910Z,7.33
2018-09-06T11:59:58.246Z,8.03
2018-09-06T12:02:28.431Z,7.07
2018-09-06T12:04:58.949Z,7.60
2018-09-06T12:07:29.223Z,7.40
2018-09-06T12:09:59.489Z,8.00
2018-09-06T12:12:30.020Z,7.90
2018-09-06T12:15:00.166Z,7.83
2018-09-06T12:17:30.378Z,7.90
2018-09-06T12:20:00.934Z,7.77
2018-09-06T12:22:31.109Z,8.30
2018-09-06T12:25:01.549Z,7.53
2018-09-06T12:27:32.004Z,7.70
2018-09-06T12:30:02.311Z,7.37
2018-09-06T12:32:32.721Z,7.57
2018-09-06T12:35:03.319Z,7.77
2018-09-06T12:37:33.610Z,7.87
2018-09-06T12:40:03.976Z,8.00
2018-09-06T12:42:34.528Z,6.80
2018-09-06T12:45:05.250Z,8.00
2018-09-06T12:47:35.425Z,8.10
2018-09-06T12:50:05.796Z,8.33
2018-09-06T12:52:36.125Z,7.23
2018-09-06T12:55:06.636Z,7.50
2018-09-06T12:57:36.889Z,7.50
2018-09-06T13:00:08.016Z,7.47
2018-09-06T13:02:38.430Z,7.90
2018-09-06T13:05:08.822Z,7.03
2018-09-06T13:07:39.212Z,8.17
2018-09-06T13:10:09.582Z,7.87
2018-09-06T13:12:39.723Z,8.73
2018-09-06T13:15:09.822Z,9.00
2018-09-06T13:17:40.129Z,7.67
2018-09-06T13:20:10.371Z,8.80
2018-09-06T13:22:40.767Z,8.00
2018-09-06T13:25:11.091Z,8.27
2018-09-06T13:27:41.670Z,8.30
2018-09-06T13:30:11.920Z,8.37
2018-09-06T13:32:41.992Z,8.67
2018-09-06T13:35:12.255Z,7.30
2018-09-06T13:37:42.405Z,8.37
2018-09-06T13:40:12.666Z,7.20
2018-09-06T13:42:42.932Z,8.70
2018-09-06T13:45:13.221Z,7.27
2018-09-06T13:47:43.518Z,7.10
2018-09-06T13:50:13.789Z,7.57
2018-09-06T13:52:43.879Z,8.10
2018-09-06T13:55:13.996Z,8.13
2018-09-06T13:57:44.293Z,8.30
2018-09-06T14:00:14.461Z,8.50
2018-09-06T14:02:44.545Z,7.43
2018-09-06T14:05:14.994Z,8.13
2018-09-06T14:07:45.312Z,7.90
2018-09-06T14:10:15.702Z,7.90
2018-09-06T14:12:45.854Z,7.93
2018-09-06T14:15:15.979Z,7.60
2018-09-06T14:17:46.346Z,7.90
2018-09-06T14:20:16.497Z,7.80
2018-09-06T14:22:46.782Z,8.20
2018-09-06T14:25:17.294Z,7.83
2018-09-06T14:27:47.563Z,7.50
2018-09-06T14:30:17.696Z,7.53
2018-09-06T14:32:47.855Z,7.30
2018-09-06T14:35:17.961Z,7.77
2018-09-06T14:37:48.278Z,8.00
2018-09-06T14:40:18.770Z,8.47
2018-09-06T14:42:49.524Z,8.87
2018-09-06T14:45:19.865Z,8.90
2018-09-06T14:47:50.041Z,7.70
2018-09-06T14:50:20.455Z,9.27
2018-09-06T14:52:50.568Z,8.93
2018-09-06T14:55:20.806Z,8.57
2018-09-06T14:57:50.949Z,8.87
2018-09-06T15:00:21.402Z,8.57
2018-09-06T15:02:51.566Z,8.73
2018-09-06T15:05:22.315Z,9.10
2018-09-06T15:07:52.450Z,9.37
2018-09-06T15:10:22.917Z,8.80
2018-09-06T15:12:53.025Z,10.03
2018-09-06T15:15:23.126Z,9.23
2018-09-06T15:17:53.260Z,9.00
2018-09-06T15:20:23.457Z,9.10
2018-09-06T15:22:53.576Z,9.33
2018-09-06T15:25:24.058Z,8.63
2018-09-06T15:27:54.287Z,9.50
2018-09-06T15:30:24.445Z,9.17
2018-09-06T15:32:54.676Z,8.77
2018-09-06T15:35:24.856Z,8.73
2018-09-06T15:37:55.188Z,9.97
2018-09-06T15:40:25.302Z,8.50
2018-09-06T15:42:56.060Z,8.67
2018-09-06T15:45:26.396Z,8.53
2018-09-06T15:47:56.965Z,8.80
2018-09-06T15:50:27.595Z,9.23
2018-09-06T15:52:57.698Z,9.07
2018-09-06T15:55:27.691Z,10.20
2018-09-06T15:57:57.846Z,10.40
2018-09-06T16:00:28.564Z,10.37
2018-09-06T16:02:58.995Z,10.23
2018-09-06T16:05:29.151Z,9.80
2018-09-06T16:07:59.423Z,9.80
2018-09-06T16:10:29.791Z,9.80
2018-09-06T16:12:59.914Z,10.47
2018-09-06T16:15:30.032Z,9.97
2018-09-06T16:18:00.885Z,9.93
2018-09-06T16:20:31.194Z,10.73
2018-09-06T16:23:01.734Z,10.20
2018-09-06T16:25:32.079Z,10.07
2018-09-06T16:28:02.122Z,9.97
2018-09-06T16:30:32.308Z,9.70
2018-09-06T16:33:02.601Z,9.87
2018-09-06T16:35:32.848Z,9.87
2018-09-06T16:38:03.126Z,10.43
2018-09-06T16:40:38.814Z,9.87
2018-09-06T16:43:09.024Z,10.07
2018-09-06T16:45:39.316Z,10.43
2018-09-06T16:48:09.592Z,10.73
2018-09-06T16:50:39.710Z,10.10
2018-09-06T16:53:09.925Z,9.93
2018-09-06T16:55:40.056Z,10.53
2018-09-06T16:58:10.177Z,10.30
2018-09-06T17:00:40.245Z,10.13
2018-09-06T17:03:10.507Z,10.10
2018-09-06T17:05:40.809Z,11.03
2018-09-06T17:08:11.188Z,11.00
2018-09-06T17:10:41.405Z,10.60
2018-09-06T17:13:11.518Z,11.03
2018-09-06T17:15:41.601Z,11.00
2018-09-06T17:18:11.989Z,10.57
2018-09-06T17:20:42.342Z,11.33
2018-09-06T17:23:12.497Z,11.23
2018-09-06T17:25:42.919Z,10.60
2018-09-06T17:28:13.054Z,10.97
2018-09-06T17:30:43.510Z,10.70
2018-09-06T17:33:13.613Z,11.10
2018-09-06T17:35:43.976Z,11.13
2018-09-06T17:38:14.211Z,11.60
2018-09-06T17:40:44.561Z,11.60
2018-09-06T17:43:14.818Z,11.80
2018-09-06T17:45:45.237Z,12.07
2018-09-06T17:48:15.312Z,11.77
2018-09-06T17:50:45.926Z,13.30
2018-09-06T17:53:16.320Z,11.97
2018-09-06T17:55:46.780Z,11.50
2018-09-06T17:58:16.880Z,11.47
2018-09-06T18:00:56.814Z,13.87
2018-09-06T18:03:27.182Z,14.97
2018-09-06T18:05:57.412Z,13.40
2018-09-06T18:08:27.591Z,13.23
2018-09-06T18:10:58.091Z,13.33
2018-09-06T18:13:28.319Z,13.73
2018-09-06T18:15:58.412Z,13.90
2018-09-06T18:18:28.674Z,12.80
2018-09-06T18:20:59.159Z,14.10
2018-09-06T18:23:29.403Z,14.40
2018-09-06T18:26:00.777Z,13.83
2018-09-06T18:28:31.286Z,14.03
2018-09-06T18:31:01.759Z,15.07
2018-09-06T18:33:32.121Z,14.00
2018-09-06T18:36:02.247Z,13.93
2018-09-06T18:38:32.386Z,14.13
2018-09-06T18:41:02.682Z,14.10
2018-09-06T18:43:32.641Z,14.00
2018-09-06T18:46:03.083Z,14.43
2018-09-06T18:48:33.449Z,14.20
2018-09-06T18:51:03.845Z,14.37
2018-09-06T18:53:33.968Z,13.23
2018-09-06T18:56:04.065Z,14.40
2018-09-06T18:58:34.247Z,13.47
2018-09-06T19:01:04.538Z,13.73
2018-09-06T19:03:34.826Z,13.60
2018-09-06T19:06:05.284Z,15.30
2018-09-06T19:08:35.601Z,13.77
2018-09-06T19:11:05.947Z,14.30
2018-09-06T19:13:36.090Z,14.23
2018-09-06T19:16:06.686Z,13.33
2018-09-06T19:18:38.078Z,13.13
2018-09-06T19:21:08.520Z,14.47
2018-09-06T19:23:38.901Z,14.23
2018-09-06T19:26:09.370Z,14.07
2018-09-06T19:28:39.505Z,14.43
2018-09-06T19:31:10.692Z,15.07
2018-09-06T19:33:40.818Z,15.30
2018-09-06T19:36:11.690Z,14.70
2018-09-06T19:38:43.702Z,14.93
2018-09-06T19:41:15.067Z,14.90
2018-09-06T19:43:47.361Z,15.37
2018-09-06T19:46:18.421Z,14.67
2018-09-06T19:48:50.162Z,14.93
2018-09-06T19:51:21.867Z,14.47
2018-09-06T19:53:54.167Z,14.77
2018-09-06T19:56:25.674Z,15.43
2018-09-06T19:58:57.338Z,15.30
2018-09-06T20:01:28.799Z,15.17
2018-09-06T20:03:59.910Z,14.73
2018-09-06T20:06:31.359Z,14.63
2018-09-06T20:09:02.776Z,14.23
2018-09-06T20:11:34.158Z,14.60
2018-09-06T20:14:05.761Z,14.67
2018-09-06T20:16:37.800Z,14.50
2018-09-06T20:19:08.657Z,14.73
2018-09-06T20:21:38.983Z,14.90
2018-09-06T20:24:10.731Z,14.27
2018-09-06T20:26:42.606Z,14.30
2018-09-06T20:29:13.845Z,14.77
2018-09-06T20:31:45.387Z,14.97
2018-09-06T20:34:17.068Z,15.87
2018-09-06T20:36:48.492Z,15.57
2018-09-06T20:39:18.998Z,16.70
2018-09-06T20:41:50.042Z,16.13
2018-09-06T20:44:21.617Z,17.00
2018-09-06T20:46:52.666Z,16.13
2018-09-06T20:49:24.064Z,16.93
2018-09-06T20:51:55.225Z,15.40
2018-09-06T20:54:26.293Z,15.87
2018-09-06T20:56:57.842Z,16.77
2018-09-06T20:59:29.251Z,17.13
2018-09-06T21:02:06.132Z,16.27
2018-09-06T21:04:37.393Z,16.90
2018-09-06T21:07:07.996Z,17.03
2018-09-06T21:09:39.107Z,17.00
2018-09-06T21:12:10.181Z,16.20
2018-09-06T21:14:41.490Z,16.10
2018-09-06T21:17:12.238Z,16.50
2018-09-06T21:19:43.341Z,14.97
2018-09-06T21:22:14.593Z,15.97
2018-09-06T21:24:46.227Z,16.07
2018-09-06T21:27:17.197Z,16.60
2018-09-06T21:29:48.421Z,15.20
2018-09-06T21:32:18.874Z,15.17
2018-09-06T21:34:50.154Z,15.70
2018-09-06T21:37:21.139Z,15.47
2018-09-06T21:39:51.636Z,16.73
2018-09-06T21:42:22.715Z,17.07
2018-09-06T21:44:53.969Z,17.60
2018-09-06T21:47:26.087Z,15.97
2018-09-06T21:49:57.304Z,17.67
2018-09-06T21:52:28.302Z,16.57
2018-09-06T21:54:59.933Z,16.83
2018-09-06T21:57:30.955Z,16.50
2018-09-06T22:00:01.676Z,17.53
2018-09-06T22:02:39.362Z,17.77
2018-09-06T22:05:10.548Z,16.23
2018-09-06T22:07:41.249Z,15.97
2018-09-06T22:10:12.922Z,17.33
2018-09-06T22:12:44.549Z,16.80
2018-09-06T22:15:16.151Z,16.40
2018-09-06T22:17:47.355Z,15.87
2018-09-06T22:20:18.304Z,15.93
2018-09-06T22:22:49.772Z,15.97
2018-09-06T22:25:21.152Z,17.60
2018-09-06T22:27:52.323Z,16.10
2018-09-06T22:30:23.869Z,15.53
2018-09-06T22:32:55.512Z,16.37
2018-09-06T22:35:26.655Z,15.77
2018-09-06T22:37:57.745Z,16.13
2018-09-06T22:40:29.399Z,16.13
2018-09-06T22:43:00.688Z,15.43
2018-09-06T22:45:31.135Z,17.83
2018-09-06T22:48:02.156Z,15.93
2018-09-06T22:50:33.591Z,15.47
2018-09-06T22:53:04.550Z,15.70
2018-09-06T22:55:35.954Z,15.83
2018-09-06T22:58:07.275Z,16.27
2018-09-06T23:00:38.077Z,16.47
2018-09-06T23:03:14.443Z,16.20
2018-09-06T23:05:44.854Z,17.30
2018-09-06T23:08:16.596Z,17.53
2018-09-06T23:10:47.720Z,15.83
2018-09-06T23:13:18.875Z,18.03
2018-09-06T23:15:50.237Z,17.30
2018-09-06T23:18:21.619Z,17.23
2018-09-06T23:20:52.843Z,16.77
2018-09-06T23:23:24.077Z,17.07
2018-09-06T23:25:55.200Z,15.70
2018-09-06T23:28:25.911Z,16.97
2018-09-06T23:30:56.504Z,16.23
2018-09-06T23:33:27.914Z,17.00
2018-09-06T23:35:58.943Z,17.43
2018-09-06T23:38:30.204Z,17.13
2018-09-06T23:41:01.701Z,16.50
2018-09-06T23:43:33.560Z,17.83
2018-09-06T23:46:05.126Z,17.60
2018-09-06T23:48:35.566Z,17.50
2018-09-06T23:51:06.522Z,17.33
2018-09-06T23:53:37.912Z,19.23
2018-09-06T23:56:08.884Z,17.60
2018-09-06T23:58:39.413Z,18.10
